Time;durP1;ratioP1;P1;durP2;ratioP2;P2;SDS_P1;SDS_P2;PMS_P1;PMS_P2;Temp;Humidity;BMP_temperature;BMP_pressure;BME280_temperature;BME280_humidity;BME280_pressure;Samples;Min_cycle;Max_cycle;Signal;HPM_P1;HPM_P2
2023/11/16 00:00:30;;;;;;;;;;;;;;;5.33;100.00;96010.31;10546714;28;2586;-72
2023/11/16 00:05:35;;;;;;;;;;;;;;;5.39;100.00;96004.03;10543641;28;2620;-73
2023/11/16 00:10:39;;;;;;;;;;;;;;;5.36;100.00;95998.38;10540850;28;2607;-72
2023/11/16 00:15:42;;;;;;;;;;;;;;;5.29;100.00;96003.84;10560309;27;5162;-72
2023/11/16 00:20:45;;;;;;;;;;;;;;;5.27;100.00;95999.78;10549971;27;2589;-73
2023/11/16 00:25:47;;;;;;;;;;;;;;;5.23;100.00;96002.13;10549354;27;2939;-73
2023/11/16 00:30:50;;;;;;;;;;;;;;;5.21;100.00;95998.84;10552242;28;2975;-71
2023/11/16 00:35:55;;;;;;;;;;;;;;;5.15;100.00;95999.78;10547068;27;2616;-73
2023/11/16 00:40:57;;;;;;;;;;;;;;;5.09;100.00;95998.06;10548360;27;2629;-72
2023/11/16 00:46:00;;;;;;;;;;;;;;;5.04;100.00;95995.31;10547465;27;2660;-72
2023/11/16 00:51:02;;;;;;;;;;;;;;;5.11;100.00;95990.66;10550964;27;2663;-75
2023/11/16 00:56:05;;;;;;;;;;;;;;;5.05;100.00;95996.91;10551144;27;2617;-73
2023/11/16 01:01:09;;;;;;;;;;;;;;;5.07;100.00;95987.63;10552336;27;2605;-74
2023/11/16 01:06:13;;;;;;;;;;;;;;;5.18;100.00;95990.53;10544902;27;2920;-72
2023/11/16 01:11:16;;;;;;;;;;;;;;;5.15;100.00;95983.81;10547656;28;2688;-73
2023/11/16 01:16:18;;;;;;;;;;;;;;;5.29;100.00;95987.84;10549768;27;5122;-71
2023/11/16 01:21:21;;;;;;;;;;;;;;;5.33;100.00;95988.19;10547020;27;2554;-73
2023/11/16 01:26:26;;;;;;;;;;;;;;;5.43;100.00;95985.72;10543852;27;2672;-76
2023/11/16 01:31:28;;;;;;;;;;;;;;;5.56;100.00;95982.78;10550462;28;2671;-72
2023/11/16 01:36:30;;;;;;;;;;;;;;;5.65;100.00;95986.69;10547049;27;2616;-71
2023/11/16 01:41:33;;;;;;;;;;;;;;;5.79;100.00;95975.75;10548026;27;2670;-74
2023/11/16 01:46:35;;;;;;;;;;;;;;;5.87;100.00;95978.84;10547484;27;2643;-72
2023/11/16 01:51:43;;;;;;;;;;;;;;;5.79;100.00;95970.41;10548195;27;2614;-73
2023/11/16 01:56:47;;;;;;;;;;;;;;;5.70;100.00;95964.66;10548531;27;2660;-73
2023/11/16 02:01:50;;;;;;;;;;;;;;;5.70;100.00;95968.13;10550974;27;2577;-73
2023/11/16 02:06:53;;;;;;;;;;;;;;;5.54;100.00;95976.09;10542434;27;2742;-75
2023/11/16 02:11:56;;;;;;;;;;;;;;;5.41;100.00;95972.66;10552105;28;5027;-76
2023/11/16 02:16:58;;;;;;;;;;;;;;;5.35;100.00;95981.59;10546546;27;2599;-73
2023/11/16 02:22:01;;;;;;;;;;;;;;;5.34;100.00;95971.13;10531086;27;2698;-72
2023/11/16 02:27:04;;;;;;;;;;;;;;;5.38;100.00;95978.44;10513911;28;3039;-73
2023/11/16 02:32:07;;;;;;;;;;;;;;;5.42;100.00;95971.59;10553433;28;2604;-73
2023/11/16 02:37:09;;;;;;;;;;;;;;;5.47;100.00;95972.72;10541713;28;2662;-73
2023/11/16 02:42:13;;;;;;;;;;;;;;;5.63;100.00;95966.66;10548022;28;2608;-73
2023/11/16 02:47:15;;;;;;;;;;;;;;;5.69;100.00;95963.03;10524153;27;2708;-73
2023/11/16 02:52:18;;;;;;;;;;;;;;;5.83;100.00;95955.56;10544467;28;2634;-73
2023/11/16 02:57:21;;;;;;;;;;;;;;;5.86;100.00;95955.91;10548403;28;2656;-71
2023/11/16 03:02:23;;;;;;;;;;;;;;;5.72;100.00;95957.22;10546385;28;3121;-72
2023/11/16 03:07:26;;;;;;;;;;;;;;;5.57;100.00;95964.94;10542924;28;2640;-72
2023/11/16 03:12:34;;;;;;;;;;;;;;;5.54;100.00;95957.44;10546525;28;5222;-72
2023/11/16 03:17:38;;;;;;;;;;;;;;;5.55;100.00;95953.72;10542771;28;2576;-73
2023/11/16 03:22:40;;;;;;;;;;;;;;;5.50;100.00;95953.59;10544828;28;2671;-72
2023/11/16 03:27:44;;;;;;;;;;;;;;;5.38;100.00;95949.09;10545969;28;2605;-72
2023/11/16 03:32:46;;;;;;;;;;;;;;;5.30;100.00;95948.69;10544133;28;2686;-73
2023/11/16 03:37:49;;;;;;;;;;;;;;;5.27;100.00;95949.13;10547494;28;2604;-73
2023/11/16 03:42:52;;;;;;;;;;;;;;;5.22;100.00;95954.38;10549062;28;2575;-73
2023/11/16 03:47:54;;;;;;;;;;;;;;;5.24;100.00;95954.94;10559754;27;2601;-73
2023/11/16 03:52:57;;;;;;;;;;;;;;;5.16;100.00;95950.81;10551575;27;2600;-73
2023/11/16 03:57:59;;;;;;;;;;;;;;;5.03;100.00;95951.06;10553637;27;2601;-76
2023/11/16 04:03:03;;;;;;;;;;;;;;;5.03;100.00;95948.41;10551480;27;2671;-72
2023/11/16 04:08:06;;;;;;;;;;;;;;;4.96;100.00;95942.34;10552747;27;3739;-73
2023/11/16 04:13:08;;;;;;;;;;;;;;;4.89;100.00;95940.63;10552345;27;5223;-72
2023/11/16 04:18:11;;;;;;;;;;;;;;;4.91;100.00;95937.75;10553811;27;2710;-77
2023/11/16 04:23:13;;;;;;;;;;;;;;;4.96;100.00;95921.84;10554134;27;2652;-72
2023/11/16 04:28:19;;;;;;;;;;;;;;;5.00;100.00;95914.22;10562679;27;3077;-72
2023/11/16 04:33:21;;;;;;;;;;;;;;;5.03;100.00;95905.75;10557966;27;2639;-73
2023/11/16 04:38:27;;;;;;;;;;;;;;;5.06;100.00;95903.41;10553229;27;2550;-73
2023/11/16 04:43:30;;;;;;;;;;;;;;;5.06;100.00;95894.63;10548766;27;2775;-72
2023/11/16 04:48:33;;;;;;;;;;;;;;;5.04;100.00;95876.22;10546515;27;2644;-72
2023/11/16 04:53:36;;;;;;;;;;;;;;;5.03;100.00;95871.13;10545869;27;2669;-74
2023/11/16 04:58:38;;;;;;;;;;;;;;;5.00;100.00;95867.06;10549932;27;2622;-73
2023/11/16 05:03:41;;;;;;;;;;;;;;;4.94;100.00;95848.56;10551554;27;2657;-77
2023/11/16 05:08:43;;;;;;;;;;;;;;;4.79;100.00;95849.06;10591037;27;2668;-72
2023/11/16 05:13:46;;;;;;;;;;;;;;;4.69;100.00;95854.16;10591947;27;5268;-72
2023/11/16 05:18:48;;;;;;;;;;;;;;;4.59;100.00;95854.78;10593806;27;2658;-72
2023/11/16 05:23:51;;;;;;;;;;;;;;;4.49;100.00;95859.88;10591356;27;2616;-72
2023/11/16 05:28:53;;;;;;;;;;;;;;;4.48;100.00;95859.06;10573944;27;2779;-71
2023/11/16 05:33:56;;;;;;;;;;;;;;;4.41;100.00;95847.72;10600628;27;2610;-72
2023/11/16 05:38:59;;;;;;;;;;;;;;;4.33;100.00;95859.53;10592406;27;2659;-72
2023/11/16 05:44:01;;;;;;;;;;;;;;;4.43;100.00;95879.44;10588644;27;2596;-73
2023/11/16 05:49:06;;;;;;;;;;;;;;;4.63;100.00;95871.88;10595605;27;2625;-71
2023/11/16 05:54:10;;;;;;;;;;;;;;;4.82;100.00;95865.38;10592768;27;2696;-73
2023/11/16 05:59:13;;;;;;;;;;;;;;;4.97;100.00;95850.75;10598051;27;2603;-72
2023/11/16 06:04:16;;;;;;;;;;;;;;;4.96;100.00;95843.78;10577434;27;2622;-72
2023/11/16 06:09:19;;;;;;;;;;;;;;;4.91;100.00;95847.19;10588407;27;2623;-72
2023/11/16 06:14:22;;;;;;;;;;;;;;;4.83;100.00;95852.84;10594974;27;5234;-72
2023/11/16 06:19:39;;;;;;;;;;;;;;;4.79;100.00;95841.88;10595594;27;2615;-77
2023/11/16 06:24:41;;;;;;;;;;;;;;;4.70;100.00;95829.97;10590364;27;2781;-73
2023/11/16 06:29:44;;;;;;;;;;;;;;;4.68;100.00;95832.06;10595106;27;2587;-74
2023/11/16 06:34:46;;;;;;;;;;;;;;;4.74;100.00;95832.97;10595745;27;2579;-74
2023/11/16 06:39:49;;;;;;;;;;;;;;;4.84;100.00;95825.19;10590076;27;2669;-77
2023/11/16 06:44:52;;;;;;;;;;;;;;;4.90;100.00;95832.25;10594250;27;2623;-77
2023/11/16 06:49:54;;;;;;;;;;;;;;;5.04;100.00;95827.44;10592763;27;2556;-73
2023/11/16 06:54:57;;;;;;;;;;;;;;;5.14;100.00;95812.44;10596841;27;2710;-74
2023/11/16 06:59:59;;;;;;;;;;;;;;;5.19;100.00;95809.06;10600615;27;2601;-72
2023/11/16 07:05:03;;;;;;;;;;;;;;;5.21;100.00;95798.16;10595584;27;2619;-72
2023/11/16 07:10:06;;;;;;;;;;;;;;;5.33;100.00;95797.06;10595579;27;2699;-73
2023/11/16 07:15:09;;;;;;;;;;;;;;;5.57;100.00;95775.63;10591336;27;5342;-76
2023/11/16 07:20:11;;;;;;;;;;;;;;;5.64;100.00;95770.94;10591840;27;2761;-71
2023/11/16 07:25:20;;;;;;;;;;;;;;;5.69;100.00;95779.00;10592501;27;2674;-72
2023/11/16 07:30:24;;;;;;;;;;;;;;;5.88;100.00;95772.38;10602886;27;2634;-72
2023/11/16 07:35:27;;;;;;;;;;;;;;;6.24;100.00;95759.59;10600640;27;2770;-72
2023/11/16 07:40:30;;;;;;;;;;;;;;;6.50;100.00;95774.88;10600696;27;2595;-71
2023/11/16 07:45:32;;;;;;;;;;;;;;;6.52;100.00;95739.91;10599180;27;2661;-75
2023/11/16 07:50:35;;;;;;;;;;;;;;;6.65;100.00;95744.88;10596538;27;2632;-71
2023/11/16 07:55:40;;;;;;;;;;;;;;;6.87;100.00;95736.88;10594740;27;2525;-72
2023/11/16 08:00:55;;;;;;;;;;;;;;;7.13;100.00;95731.78;10597532;27;2584;-75
2023/11/16 08:05:58;;;;;;;;;;;;;;;7.29;100.00;95725.50;10589291;27;2648;-75
2023/11/16 08:11:04;;;;;;;;;;;;;;;7.14;100.00;95725.38;10597984;27;2582;-70
2023/11/16 08:16:06;;;;;;;;;;;;;;;6.99;100.00;95721.47;10598994;27;5071;-70
2023/11/16 08:21:09;;;;;;;;;;;;;;;7.16;100.00;95709.88;10593060;27;2715;-70
2023/11/16 08:26:11;;;;;;;;;;;;;;;7.15;100.00;95716.28;10594323;27;2613;-71
2023/11/16 08:31:14;;;;;;;;;;;;;;;7.12;100.00;95708.75;10590297;27;2853;-71
2023/11/16 08:36:17;;;;;;;;;;;;;;;7.17;100.00;95704.28;10591303;27;2642;-71
2023/11/16 08:41:22;;;;;;;;;;;;;;;7.03;100.00;95703.06;10590221;27;2690;-71
2023/11/16 08:46:30;;;;;;;;;;;;;;;7.05;100.00;95703.63;10592625;27;2611;-72
2023/11/16 08:51:33;;;;;;;;;;;;;;;6.95;100.00;95700.88;10595515;27;2575;-70
2023/11/16 08:56:36;;;;;;;;;;;;;;;7.00;100.00;95692.91;10590512;27;2725;-72
2023/11/16 09:01:44;;;;;;;;;;;;;;;7.11;100.00;95683.91;10591479;27;2619;-72
2023/11/16 09:06:47;;;;;;;;;;;;;;;7.30;100.00;95676.31;10587863;27;2627;-71
2023/11/16 09:11:49;;;;;;;;;;;;;;;7.52;100.00;95678.91;10596822;27;2548;-72
2023/11/16 09:16:57;;;;;;;;;;;;;;;7.91;100.00;95681.31;10590202;27;5763;-84
2023/11/16 09:22:13;;;;;;;;;;;;;;;8.24;100.00;95661.38;10594379;27;2627;-71
2023/11/16 09:27:17;;;;;;;;;;;;;;;8.63;100.00;95646.56;10588965;27;3071;-72
2023/11/16 09:32:21;;;;;;;;;;;;;;;8.90;100.00;95640.97;10592467;27;2640;-70
2023/11/16 09:37:26;;;;;;;;;;;;;;;9.08;100.00;95623.56;10589112;27;3067;-73
2023/11/16 09:42:31;;;;;;;;;;;;;;;8.99;100.00;95611.78;10588800;27;2551;-70
2023/11/16 09:47:33;;;;;;;;;;;;;;;9.27;100.00;95607.75;10587781;27;2675;-76
2023/11/16 09:52:38;;;;;;;;;;;;;;;9.52;100.00;95604.25;10588172;27;2624;-78
2023/11/16 09:57:42;;;;;;;;;;;;;;;9.47;100.00;95588.13;10593323;27;2629;-77
2023/11/16 10:02:45;;;;;;;;;;;;;;;9.76;100.00;95577.63;10588721;27;2679;-74
2023/11/16 10:07:51;;;;;;;;;;;;;;;9.78;100.00;95569.28;10590295;27;2808;-75
2023/11/16 10:12:53;;;;;;;;;;;;;;;9.90;100.00;95556.38;10592671;27;2556;-72
2023/11/16 10:17:56;;;;;;;;;;;;;;;9.80;100.00;95541.13;10585921;27;2598;-70
2023/11/16 10:22:59;;;;;;;;;;;;;;;10.19;100.00;95519.72;10592425;27;2571;-72
2023/11/16 10:28:03;;;;;;;;;;;;;;;10.18;100.00;95507.38;10591538;27;2686;-73
2023/11/16 10:33:05;;;;;;;;;;;;;;;10.21;100.00;95495.25;10593058;27;2603;-71
2023/11/16 10:38:08;;;;;;;;;;;;;;;10.11;100.00;95493.44;10600343;27;2626;-71
2023/11/16 10:43:11;;;;;;;;;;;;;;;10.28;100.00;95479.66;10601263;27;3148;-69
2023/11/16 10:48:13;;;;;;;;;;;;;;;10.32;100.00;95477.25;10598066;27;2847;-70
2023/11/16 10:53:17;;;;;;;;;;;;;;;10.52;100.00;95469.84;10603838;27;2612;-71
2023/11/16 10:58:20;;;;;;;;;;;;;;;10.62;100.00;95439.38;10604800;27;2613;-72
2023/11/16 11:03:23;;;;;;;;;;;;;;;10.71;100.00;95424.25;10598863;27;2551;-70
2023/11/16 11:08:28;;;;;;;;;;;;;;;10.47;100.00;95420.69;10590639;27;2575;-71
2023/11/16 11:13:30;;;;;;;;;;;;;;;10.67;100.00;95407.06;10598785;27;5078;-72
2023/11/16 11:18:34;;;;;;;;;;;;;;;10.78;100.00;95386.28;10599360;27;2687;-70
2023/11/16 11:23:40;;;;;;;;;;;;;;;11.03;100.00;95369.88;10597701;27;2552;-72
2023/11/16 11:28:42;;;;;;;;;;;;;;;11.01;100.00;95358.63;10596399;27;2631;-71
2023/11/16 11:33:45;;;;;;;;;;;;;;;10.74;100.00;95328.78;10599445;27;2633;-71
2023/11/16 11:38:48;;;;;;;;;;;;;;;10.71;100.00;95316.72;10597603;27;2710;-71
2023/11/16 11:43:51;;;;;;;;;;;;;;;10.23;100.00;95302.41;10595602;27;2656;-71
2023/11/16 11:48:54;;;;;;;;;;;;;;;10.22;100.00;95282.78;10593548;27;3051;-71
2023/11/16 11:53:57;;;;;;;;;;;;;;;10.24;100.00;95261.03;10595286;27;2688;-72
2023/11/16 11:58:59;;;;;;;;;;;;;;;10.32;100.00;95238.94;10597944;27;2682;-71
2023/11/16 12:04:04;;;;;;;;;;;;;;;9.84;100.00;95220.03;10593864;27;2603;-71
2023/11/16 12:09:20;;;;;;;;;;;;;;;10.03;100.00;95199.44;10601650;27;2611;-74
2023/11/16 12:14:23;;;;;;;;;;;;;;;9.94;100.00;95190.41;10606787;27;5134;-71
2023/11/16 12:19:29;;;;;;;;;;;;;;;9.85;100.00;95167.94;10603767;27;2553;-71
2023/11/16 12:24:33;;;;;;;;;;;;;;;9.51;100.00;95157.25;10601304;27;2568;-71
2023/11/16 12:29:35;;;;;;;;;;;;;;;9.54;100.00;95139.78;10602372;27;2674;-73
2023/11/16 12:34:38;;;;;;;;;;;;;;;9.27;100.00;95116.94;10602485;27;2606;-75
2023/11/16 12:39:41;;;;;;;;;;;;;;;9.03;100.00;95108.00;10589812;27;2662;-72
2023/11/16 12:44:44;;;;;;;;;;;;;;;8.76;100.00;95081.66;10601937;27;2540;-71
2023/11/16 12:49:51;;;;;;;;;;;;;;;8.68;100.00;95064.31;10598433;27;2605;-72
2023/11/16 12:54:56;;;;;;;;;;;;;;;8.98;100.00;95062.50;10591660;27;2610;-70
2023/11/16 13:00:01;;;;;;;;;;;;;;;9.09;100.00;95027.25;10592797;27;2617;-70
2023/11/16 13:05:06;;;;;;;;;;;;;;;9.25;100.00;95024.44;10583216;27;2665;-75
2023/11/16 13:10:11;;;;;;;;;;;;;;;9.23;100.00;94991.75;10590459;27;2610;-73
2023/11/16 13:15:13;;;;;;;;;;;;;;;8.99;100.00;94967.59;10600283;27;2664;-71
2023/11/16 13:20:19;;;;;;;;;;;;;;;9.03;100.00;94945.28;10600773;27;2674;-69
2023/11/16 13:25:21;;;;;;;;;;;;;;;8.70;100.00;94964.88;10597361;27;2644;-71
2023/11/16 13:30:24;;;;;;;;;;;;;;;8.74;100.00;94971.31;10596283;27;2569;-70
2023/11/16 13:35:27;;;;;;;;;;;;;;;8.68;100.00;94965.19;10591795;27;2670;-70
2023/11/16 13:40:29;;;;;;;;;;;;;;;8.96;100.00;94958.22;10589101;27;2577;-69
2023/11/16 13:45:33;;;;;;;;;;;;;;;8.68;100.00;94983.13;10593980;27;2938;-70
2023/11/16 13:50:36;;;;;;;;;;;;;;;8.38;100.00;94990.31;10597199;27;2561;-72
2023/11/16 13:55:39;;;;;;;;;;;;;;;8.47;100.00;94966.44;10596775;27;2614;-70
2023/11/16 14:00:42;;;;;;;;;;;;;;;8.43;100.00;95013.59;10586174;27;2631;-72
2023/11/16 14:05:44;;;;;;;;;;;;;;;8.37;100.00;95023.53;10585969;27;2682;-69
2023/11/16 14:10:47;;;;;;;;;;;;;;;8.16;100.00;95040.78;10574344;27;2617;-68
2023/11/16 14:15:49;;;;;;;;;;;;;;;8.00;100.00;95075.63;10596977;27;5235;-70
2023/11/16 14:21:06;;;;;;;;;;;;;;;7.84;100.00;95098.97;10591840;27;2664;-72
2023/11/16 14:26:09;;;;;;;;;;;;;;;7.84;100.00;95095.50;10589413;27;2589;-70
2023/11/16 14:31:11;;;;;;;;;;;;;;;7.82;100.00;95101.13;10586646;27;2579;-68
2023/11/16 14:36:14;;;;;;;;;;;;;;;7.74;100.00;95125.75;10587593;27;2661;-70
2023/11/16 14:41:17;;;;;;;;;;;;;;;7.92;100.00;95129.72;10592136;27;2567;-69
2023/11/16 14:46:20;;;;;;;;;;;;;;;7.94;100.00;95126.75;10585212;27;2587;-71
2023/11/16 14:51:23;;;;;;;;;;;;;;;7.96;100.00;95109.38;10588169;27;2723;-72
2023/11/16 14:56:26;;;;;;;;;;;;;;;7.81;100.00;95128.94;10584549;27;2710;-69
2023/11/16 15:01:29;;;;;;;;;;;;;;;7.86;100.00;95123.56;10587874;27;2650;-69
2023/11/16 15:06:31;;;;;;;;;;;;;;;7.91;100.00;95121.97;10587728;27;2604;-70
2023/11/16 15:11:34;;;;;;;;;;;;;;;7.75;100.00;95100.59;10585660;27;2640;-69
2023/11/16 15:16:36;;;;;;;;;;;;;;;7.64;100.00;95098.22;10595232;27;2658;-70
2023/11/16 15:21:39;;;;;;;;;;;;;;;7.56;100.00;95124.44;10583349;27;2662;-69
2023/11/16 15:26:42;;;;;;;;;;;;;;;7.54;100.00;95126.59;10588617;27;2664;-68
2023/11/16 15:31:52;;;;;;;;;;;;;;;7.63;100.00;95128.69;10588842;27;2628;-71
2023/11/16 15:36:54;;;;;;;;;;;;;;;7.55;100.00;95109.47;10584880;27;2663;-70
2023/11/16 15:41:57;;;;;;;;;;;;;;;7.45;100.00;95085.44;10596136;27;2674;-70
2023/11/16 15:47:00;;;;;;;;;;;;;;;7.41;100.00;95081.69;10600663;27;2643;-70
2023/11/16 15:52:04;;;;;;;;;;;;;;;7.43;100.00;95066.16;10599700;27;2622;-70
2023/11/16 15:57:07;;;;;;;;;;;;;;;7.46;100.00;95046.91;10600756;27;2686;-70
2023/11/16 16:02:10;;;;;;;;;;;;;;;7.51;100.00;95046.13;10606163;27;2753;-74
2023/11/16 16:07:13;;;;;;;;;;;;;;;7.50;100.00;95037.25;10611685;27;2538;-73
2023/11/16 16:12:15;;;;;;;;;;;;;;;7.49;100.00;95030.31;10599794;27;5280;-73
2023/11/16 16:17:17;;;;;;;;;;;;;;;7.59;100.00;95016.91;10598314;27;2817;-70
2023/11/16 16:22:20;;;;;;;;;;;;;;;7.51;100.00;95004.13;10602402;27;2627;-71
2023/11/16 16:27:22;;;;;;;;;;;;;;;7.37;100.00;94992.38;10603298;27;2579;-70
2023/11/16 16:32:29;;;;;;;;;;;;;;;7.44;100.00;94997.44;10605184;27;2537;-69
2023/11/16 16:37:31;;;;;;;;;;;;;;;7.47;100.00;94960.28;10598850;27;2667;-69
2023/11/16 16:42:34;;;;;;;;;;;;;;;7.46;100.00;94910.53;10584941;27;2580;-70
2023/11/16 16:47:37;;;;;;;;;;;;;;;7.42;100.00;94898.78;10606214;27;2711;-74
2023/11/16 16:52:39;;;;;;;;;;;;;;;7.39;100.00;94869.13;10599298;27;2666;-74
2023/11/16 16:57:42;;;;;;;;;;;;;;;7.20;100.00;94863.63;10602706;27;2644;-69
2023/11/16 17:02:45;;;;;;;;;;;;;;;7.33;100.00;94863.00;10601340;27;2662;-69
2023/11/16 17:07:48;;;;;;;;;;;;;;;7.34;100.00;94832.53;10600181;27;2619;-69
2023/11/16 17:12:50;;;;;;;;;;;;;;;7.19;100.00;94835.25;10583904;27;5113;-69
2023/11/16 17:17:53;;;;;;;;;;;;;;;7.19;100.00;94843.28;10593455;27;2621;-71
2023/11/16 17:22:57;;;;;;;;;;;;;;;7.31;100.00;94831.19;10594610;27;2602;-69
2023/11/16 17:28:00;;;;;;;;;;;;;;;7.19;100.00;94804.00;10592738;27;2570;-69
2023/11/16 17:33:03;;;;;;;;;;;;;;;6.89;100.00;94820.19;10597445;27;2692;-68
2023/11/16 17:38:07;;;;;;;;;;;;;;;6.77;100.00;94815.16;10595034;27;2536;-68
2023/11/16 17:43:10;;;;;;;;;;;;;;;6.56;100.00;94821.63;10601696;27;2579;-69
2023/11/16 17:48:13;;;;;;;;;;;;;;;6.45;100.00;94794.94;10597809;27;2613;-68
2023/11/16 17:53:16;;;;;;;;;;;;;;;6.45;100.00;94805.63;10593601;27;2567;-68
2023/11/16 17:58:18;;;;;;;;;;;;;;;6.39;100.00;94819.25;10593712;27;2553;-68
2023/11/16 18:03:21;;;;;;;;;;;;;;;6.20;100.00;94801.13;10592882;27;2848;-72
2023/11/16 18:08:26;;;;;;;;;;;;;;;6.15;100.00;94795.00;10593830;27;2548;-71
2023/11/16 18:13:29;;;;;;;;;;;;;;;5.99;100.00;94798.78;10597710;27;2716;-72
2023/11/16 18:18:32;;;;;;;;;;;;;;;6.02;100.00;94808.91;10600244;27;2548;-72
2023/11/16 18:23:34;;;;;;;;;;;;;;;6.02;100.00;94811.56;10591029;27;2638;-69
2023/11/16 18:28:38;;;;;;;;;;;;;;;5.91;100.00;94806.22;10587463;27;2680;-70
2023/11/16 18:33:42;;;;;;;;;;;;;;;5.86;100.00;94798.22;10588948;27;2660;-68
2023/11/16 18:38:45;;;;;;;;;;;;;;;5.94;100.00;94800.38;10586763;27;2619;-70
2023/11/16 18:43:47;;;;;;;;;;;;;;;5.89;100.00;94784.34;10591344;27;2626;-72
2023/11/16 18:48:50;;;;;;;;;;;;;;;5.68;100.00;94772.09;10589722;27;2643;-71
2023/11/16 18:53:53;;;;;;;;;;;;;;;5.58;100.00;94759.53;10594688;27;2620;-72
2023/11/16 18:58:56;;;;;;;;;;;;;;;5.63;100.00;94750.75;10595168;27;2604;-71
2023/11/16 19:03:59;;;;;;;;;;;;;;;5.60;100.00;94740.63;10578675;27;2651;-69
2023/11/16 19:09:03;;;;;;;;;;;;;;;5.53;100.00;94724.88;10587476;27;2603;-71
2023/11/16 19:14:06;;;;;;;;;;;;;;;5.62;100.00;94738.50;10594015;27;2588;-71
2023/11/16 19:19:10;;;;;;;;;;;;;;;5.77;100.00;94743.81;10592946;27;2599;-70
2023/11/16 19:24:15;;;;;;;;;;;;;;;5.76;100.00;94742.22;10591060;27;2679;-72
2023/11/16 19:29:18;;;;;;;;;;;;;;;5.80;100.00;94715.81;10590506;27;2709;-71
2023/11/16 19:34:21;;;;;;;;;;;;;;;5.86;100.00;94702.19;10593578;27;2614;-73
2023/11/16 19:39:23;;;;;;;;;;;;;;;5.85;100.00;94689.94;10592124;27;2690;-74
2023/11/16 19:44:38;;;;;;;;;;;;;;;5.96;100.00;94680.06;10589362;27;2639;-75
2023/11/16 19:49:41;;;;;;;;;;;;;;;6.04;100.00;94670.69;10591136;27;2710;-71
2023/11/16 19:54:44;;;;;;;;;;;;;;;5.96;100.00;94670.19;10588692;27;2634;-71
2023/11/16 19:59:47;;;;;;;;;;;;;;;6.02;100.00;94667.50;10589147;27;2746;-69
2023/11/16 20:04:50;;;;;;;;;;;;;;;6.05;100.00;94646.44;10591736;27;2661;-71
2023/11/16 20:09:52;;;;;;;;;;;;;;;6.02;100.00;94630.16;10594160;27;2689;-74
2023/11/16 20:14:56;;;;;;;;;;;;;;;6.06;100.00;94628.56;10593068;27;2574;-72
2023/11/16 20:20:01;;;;;;;;;;;;;;;6.18;100.00;94637.06;10583130;27;2615;-71
2023/11/16 20:25:06;;;;;;;;;;;;;;;6.24;100.00;94601.25;10587001;27;2738;-71
2023/11/16 20:30:10;;;;;;;;;;;;;;;6.33;100.00;94609.47;10593523;27;2635;-71
2023/11/16 20:35:13;;;;;;;;;;;;;;;6.38;100.00;94604.91;10598040;27;2547;-70
2023/11/16 20:40:17;;;;;;;;;;;;;;;6.49;100.00;94605.66;10597139;27;2631;-71
2023/11/16 20:45:22;;;;;;;;;;;;;;;6.58;100.00;94598.66;10597810;27;2687;-72
2023/11/16 20:50:24;;;;;;;;;;;;;;;6.60;100.00;94571.69;10594581;27;2646;-75
2023/11/16 20:55:28;;;;;;;;;;;;;;;6.59;100.00;94568.22;10593538;27;2577;-73
2023/11/16 21:00:31;;;;;;;;;;;;;;;6.57;100.00;94561.56;10592158;27;2573;-72
2023/11/16 21:05:34;;;;;;;;;;;;;;;6.59;100.00;94549.53;10610684;27;2430;-73
2023/11/16 21:10:36;;;;;;;;;;;;;;;6.64;100.00;94548.69;10615640;27;1505;-77
2023/11/16 21:15:39;;;;;;;;;;;;;;;6.71;100.00;94541.16;10605066;27;5139;-77
2023/11/16 21:20:41;;;;;;;;;;;;;;;6.72;100.00;94529.41;10602562;27;2037;-72
2023/11/16 21:25:44;;;;;;;;;;;;;;;6.66;100.00;94525.16;10604246;27;1760;-71
2023/11/16 21:30:47;;;;;;;;;;;;;;;6.73;100.00;94515.75;10609042;27;1540;-71
2023/11/16 21:35:50;;;;;;;;;;;;;;;6.75;100.00;94515.50;10604126;27;1989;-71
2023/11/16 21:40:53;;;;;;;;;;;;;;;6.77;100.00;94513.34;10613901;27;1559;-70
2023/11/16 21:45:55;;;;;;;;;;;;;;;6.80;100.00;94523.44;10610563;27;1629;-71
2023/11/16 21:50:58;;;;;;;;;;;;;;;6.84;100.00;94521.81;10610436;27;1466;-73
2023/11/16 21:56:00;;;;;;;;;;;;;;;6.75;100.00;94520.84;10598776;27;2002;-74
2023/11/16 22:01:03;;;;;;;;;;;;;;;6.80;100.00;94534.13;10602625;27;1580;-70
2023/11/16 22:06:08;;;;;;;;;;;;;;;6.84;100.00;94539.72;10589810;27;1835;-70
2023/11/16 22:11:11;;;;;;;;;;;;;;;7.00;100.00;94543.88;10605454;27;2631;-70
2023/11/16 22:16:13;;;;;;;;;;;;;;;7.06;100.00;94558.75;10593702;27;5407;-72
2023/11/16 22:21:16;;;;;;;;;;;;;;;7.04;100.00;94575.06;10597939;27;3101;-69
2023/11/16 22:26:19;;;;;;;;;;;;;;;6.83;100.00;94600.38;10594848;27;2624;-71
2023/11/16 22:31:22;;;;;;;;;;;;;;;6.85;100.00;94587.50;10600773;27;2584;-73
2023/11/16 22:36:24;;;;;;;;;;;;;;;6.88;100.00;94580.84;10595971;27;2599;-77
2023/11/16 22:41:27;;;;;;;;;;;;;;;6.91;100.00;94559.69;10599898;27;2659;-72
2023/11/16 22:46:29;;;;;;;;;;;;;;;7.02;100.00;94577.22;10596123;27;2703;-73
2023/11/16 22:51:33;;;;;;;;;;;;;;;6.96;100.00;94586.38;10594053;27;2649;-74
2023/11/16 22:56:36;;;;;;;;;;;;;;;6.99;100.00;94567.09;10600228;27;2555;-71
2023/11/16 23:01:39;;;;;;;;;;;;;;;6.95;100.00;94568.75;10589942;27;2566;-72
2023/11/16 23:06:42;;;;;;;;;;;;;;;7.02;100.00;94553.19;10593415;27;2666;-71
2023/11/16 23:11:44;;;;;;;;;;;;;;;7.10;100.00;94542.97;10600357;27;2628;-70
2023/11/16 23:16:47;;;;;;;;;;;;;;;7.20;100.00;94543.69;10593581;27;5353;-71
2023/11/16 23:21:49;;;;;;;;;;;;;;;7.25;100.00;94530.28;10601365;27;2611;-70
2023/11/16 23:26:53;;;;;;;;;;;;;;;7.27;100.00;94541.47;10591869;27;2593;-70
2023/11/16 23:31:56;;;;;;;;;;;;;;;7.33;100.00;94534.19;10596651;27;2524;-70
2023/11/16 23:36:59;;;;;;;;;;;;;;;7.38;100.00;94504.75;10593251;27;2624;-71
2023/11/16 23:42:03;;;;;;;;;;;;;;;7.47;100.00;94500.34;10591518;27;2684;-70
2023/11/16 23:47:05;;;;;;;;;;;;;;;7.49;100.00;94516.09;10589126;27;2602;-70
2023/11/16 23:52:12;;;;;;;;;;;;;;;7.45;100.00;94504.41;10590197;27;2638;-72
2023/11/16 23:57:15;;;;;;;;;;;;;;;7.43;100.00;94485.94;10597572;27;2751;-71
